Latest Weather Observations for Charleville

IDQ60801

Issued at 3:02 pm EST Tuesday 19 June 2018 (issued every 10 minutes, with the page automatically refreshed every 10 minutes)

About weather observations | Map of weather stations | Latest weather observations for QLD | Other Formats
Station Details ID: 044021 Name: CHARLEVILLE AERO Lat: -26.41 Lon: 146.26 Height: 301.6 m
Data from the previous 72 hours. | See also: Recent months at Charleville
Date/Time
EST
Temp
°C
App
Temp
°C
Dew
Point
°C
Rel
Hum
%
Delta-T
°C
Wind Press
QNH
hPa
Press
MSL
hPa
Rain since
9am
mm
Dir  Spd
km/h
Gust
km/h
Spd
kts
Gust
kts
19/03:00pm 16.9 11.3 -3.2 25 8.2 SSE 17 28 9 15 1022.8 1022.7 0.0
19/02:30pm 16.7 11.9 -2.4 27 7.9 S 13 20 7 11 1022.9 1022.8 0.0
19/02:00pm 17.0 12.3 -2.1 27 8.0 SSW 13 19 7 10 1023.1 1023.0 0.0
19/01:30pm 16.2 11.9 -1.4 30 7.4 SSW 11 20 6 11 1023.5 1023.4 0.0
19/01:00pm 15.7 10.3 -1.4 31 7.1 SSW 17 26 9 14 1024.1 1024.1 0.0
19/12:30pm 15.4 11.3 -0.4 34 6.8 S 11 19 6 10 1024.7 1024.7 0.0
19/12:00pm 14.5 10.0 0.0 37 6.2 S 13 20 7 11 1025.5 1025.4 0.0
19/11:30am 13.9 8.4 0.5 40 5.8 SSW 19 24 10 13 1026.1 1026.0 0.0
19/11:00am 13.1 7.7 1.1 44 5.2 SSE 19 28 10 15 1026.5 1026.5 0.0
19/10:30am 12.3 7.3 1.3 47 4.7 SSE 17 26 9 14 1026.8 1026.8 0.0
19/10:00am 11.7 6.8 1.9 51 4.2 SSE 17 20 9 11 1027.0 1027.0 0.0
19/09:30am 10.4 5.0 1.5 54 3.8 SSE 19 24 10 13 1026.9 1026.9 0.0
19/09:00am 8.8 4.6 1.5 60 3.0 SSE 13 15 7 8 1026.5 1026.5 0.0
19/08:30am 6.2 1.0 0.3 66 2.3 S 17 20 9 11 1026.3 1026.2 0.0
19/08:00am 3.8 0.0 -0.6 73 1.6 SSE 9 13 5 7 1025.9 1025.8 0.0
19/07:30am 1.0 -2.9 -1.6 83 0.9 SE 9 9 5 5 1025.8 1025.7 0.0
19/07:00am -0.8 -4.5 -2.8 86 0.6 SSE 7 9 4 5 1025.7 1025.6 0.0
19/06:30am -0.8 -4.4 -3.3 83 0.8 SSE 6 7 3 4 1025.8 1025.7 0.0
19/06:00am -0.7 -4.2 -3.1 84 0.8 SSE 6 9 3 5 1025.5 1025.4 0.0
19/05:30am -0.6 -4.3 -3.3 82 0.9 SE 7 9 4 5 1025.5 1025.4 0.0
19/05:00am -0.4 -2.8 -3.1 82 0.9 CALM 0 0 0 0 1025.6 1025.5 0.0
19/04:30am 0.0 -2.4 -3.0 80 1.0 CALM 0 0 0 0 1026.0 1025.9 0.0
19/04:00am 0.2 -2.9 -3.0 79 1.1 SSE 4 7 2 4 1025.9 1025.8 0.0
19/03:30am 0.9 -2.5 -2.3 79 1.2 SSE 6 7 3 4 1025.9 1025.8 0.0
19/03:00am 1.3 -1.7 -1.9 79 1.1 NW 4 9 2 5 1025.7 1025.6 0.0
19/02:30am 1.1 -1.2 -2.5 77 1.3 CALM 0 0 0 0 1025.3 1025.2 0.0
19/02:00am 1.6 -0.7 -2.3 75 1.4 CALM 0 0 0 0 1025.3 1025.2 0.0
19/01:30am 2.1 -0.6 -2.2 73 1.5 SE 2 6 1 3 1025.3 1025.2 0.0
19/01:00am 2.5 -0.5 -2.2 71 1.7 NW 4 7 2 4 1025.4 1025.3 0.0
19/12:30am 2.9 -0.1 -2.0 70 1.8 SE 4 7 2 4 1025.3 1025.2 0.0
19/12:00am 3.5 -0.1 -2.0 67 2.0 SSE 7 9 4 5 1025.2 1025.1 0.0
 
Date/Time
EST
Temp
°C
App
Temp
°C
Dew
Point
°C
Rel
Hum
%
Delta-T
°C
Wind Press
QNH
hPa
Press
MSL
hPa
Rain since
9am
mm
Dir  Spd
km/h
Gust
km/h
Spd
kts
Gust
kts
18/11:30pm 4.5 1.1 -1.7 64 2.3 S 6 7 3 4 1025.4 1025.3 0.0
18/11:00pm 5.7 2.2 -1.2 61 2.6 SSW 7 9 4 5 1025.7 1025.6 0.0
18/10:30pm 7.1 3.3 -0.8 57 3.1 SSW 9 9 5 5 1025.7 1025.6 0.0
18/10:00pm 8.5 4.7 -0.5 53 3.6 S 9 11 5 6 1025.7 1025.6 0.0
18/09:30pm 9.3 5.1 -0.6 50 4.0 S 11 13 6 7 1025.6 1025.5 0.0
18/09:00pm 9.7 5.9 -0.5 49 4.1 S 9 13 5 7 1025.6 1025.5 0.0
18/08:30pm 9.3 5.5 -1.1 48 4.1 S 9 13 5 7 1025.5 1025.4 0.0
18/08:00pm 9.0 4.8 -0.9 50 3.9 S 11 13 6 7 1025.2 1025.1 0.0
18/07:30pm 7.9 3.9 -1.9 50 3.7 SSW 9 11 5 6 1025.1 1025.0 0.0
18/07:00pm 8.9 4.9 -2.1 46 4.2 SSW 9 11 5 6 1024.8 1024.8 0.0
18/06:30pm 10.2 6.2 -2.4 41 4.9 SSW 9 11 5 6 1024.5 1024.5 0.0
18/06:00pm 12.4 8.4 -2.6 35 5.9 SSW 9 13 5 7 1024.2 1024.2 0.0
18/05:30pm 13.6 9.5 -2.8 32 6.5 SW 9 15 5 8 1023.8 1023.8 0.0
18/05:00pm 14.7 9.9 -2.7 30 7.0 SW 13 19 7 10 1023.6 1023.6 0.0
18/04:30pm 15.3 10.1 -2.6 29 7.3 SSW 15 22 8 12 1023.4 1023.3 0.0
18/04:00pm 15.4 10.2 -2.5 29 7.3 SW 15 20 8 11 1023.3 1023.2 0.0
18/03:30pm 15.3 10.1 -2.6 29 7.3 SW 15 26 8 14 1023.2 1023.1 0.0
18/03:00pm 15.4 10.7 -2.1 30 7.2 S 13 24 7 13 1023.3 1023.2 0.0
18/02:30pm 15.3 9.8 -2.2 30 7.2 SSW 17 26 9 14 1023.5 1023.4 0.0
18/02:00pm 14.9 9.5 -1.6 32 6.8 SW 17 26 9 14 1023.7 1023.7 0.0
18/01:30pm 14.9 10.3 -1.2 33 6.7 SSW 13 26 7 14 1023.9 1023.9 0.0
18/01:00pm 14.4 9.0 -1.6 33 6.6 S 17 26 9 14 1024.2 1024.2 0.0
18/12:30pm 13.7 8.6 -1.9 34 6.3 SSW 15 26 8 14 1024.6 1024.6 0.0
18/12:00pm 13.2 7.7 -1.9 35 6.1 SW 17 22 9 12 1025.3 1025.2 0.0
18/11:30am 13.1 7.8 -0.5 39 5.7 SW 17 28 9 15 1025.8 1025.7 0.0
18/11:00am 12.1 7.6 -0.1 43 5.1 SW 13 24 7 13 1026.3 1026.2 0.0
18/10:30am 11.5 6.3 0.3 46 4.7 SSW 17 28 9 15 1026.4 1026.3 0.0
18/10:00am 10.9 6.2 0.6 49 4.3 S 15 22 8 12 1026.7 1026.7 0.0
18/09:30am 9.7 5.3 0.3 52 3.9 S 13 19 7 10 1026.7 1026.7 0.0
18/09:00am 7.2 5.0 -1.5 54 3.3 CALM 0 0 0 0 1026.5 1026.5 0.0
18/08:30am 4.8 2.3 -3.7 54 3.0 CALM 0 0 0 0 1026.3 1026.2 0.0
18/08:00am 1.9 -0.7 -4.6 62 2.3 CALM 0 0 0 0 1026.1 1026.0 0.0
18/07:30am 0.0 -2.5 -4.2 73 1.4 CALM 0 0 0 0 1026.0 1025.9 0.0
18/07:00am -1.5 -4.1 -5.0 77 1.0 CALM 0 0 0 0 1025.8 1025.7 0.0
18/06:30am -0.9 -3.5 -4.6 76 1.2 CALM 0 0 0 0 1025.4 1025.3 0.0
18/06:00am -1.2 -3.8 -5.0 75 1.2 CALM 0 0 0 0 1025.2 1025.1 0.0
18/05:30am -1.2 -3.8 -5.0 75 1.2 CALM 0 0 0 0 1025.0 1024.9 0.0
18/05:00am -0.9 -3.5 -4.9 74 1.2 CALM 0 0 0 0 1024.7 1024.7 0.0
18/04:30am -0.8 -3.4 -5.0 73 1.3 CALM 0 0 0 0 1024.7 1024.7 0.0
18/04:00am -0.6 -3.2 -5.0 72 1.4 CALM 0 0 0 0 1025.0 1024.9 0.0
18/03:30am -0.1 -2.7 -4.7 71 1.5 CALM 0 0 0 0 1025.0 1024.9 0.0
18/03:00am 0.2 -2.4 -4.8 69 1.6 CALM 0 0 0 0 1024.8 1024.8 0.0
18/02:30am 0.1 -2.5 -4.9 69 1.6 CALM 0 0 0 0 1024.8 1024.8 0.0
18/02:00am 0.6 -2.0 -5.0 66 1.8 CALM 0 0 0 0 1025.1 1025.0 0.0
18/01:30am 1.1 -1.5 -4.7 65 2.0 CALM 0 0 0 0 1025.1 1025.0 0.0
18/01:00am 1.6 -1.0 -4.9 62 2.2 CALM 0 0 0 0 1025.1 1025.0 0.0
18/12:30am 1.8 -0.8 -5.1 60 2.4 CALM 0 0 0 0 1025.2 1025.1 0.0
18/12:00am 2.4 -0.3 -5.5 56 2.7 CALM 0 0 0 0 1025.2 1025.1 0.0
 
Date/Time
EST
Temp
°C
App
Temp
°C
Dew
Point
°C
Rel
Hum
%
Delta-T
°C
Wind Press
QNH
hPa
Press
MSL
hPa
Rain since
9am
mm
Dir  Spd
km/h
Gust
km/h
Spd
kts
Gust
kts
17/11:30pm 3.5 0.9 -5.2 53 2.9 CALM 0 0 0 0 1025.3 1025.2 0.0
17/11:00pm 4.7 2.1 -5.4 48 3.4 CALM 0 6 0 3 1025.2 1025.1 0.0
17/10:30pm 6.0 1.7 -5.0 45 3.8 SSW 9 11 5 6 1025.4 1025.3 0.0
17/10:00pm 7.0 2.3 -5.3 41 4.3 SSW 11 15 6 8 1025.3 1025.2 0.0
17/09:30pm 7.3 2.6 -4.7 42 4.3 SSW 11 15 6 8 1025.1 1025.0 0.0
17/09:00pm 6.1 1.9 -4.3 47 3.6 SSW 9 13 5 7 1024.8 1024.8 0.0
17/08:30pm 7.1 2.9 -4.3 44 4.1 SSW 9 11 5 6 1024.7 1024.7 0.0
17/08:00pm 8.9 4.7 -4.3 39 4.8 SSW 9 13 5 7 1024.4 1024.4 0.0
17/07:30pm 8.6 4.1 -3.6 42 4.5 SSW 11 15 6 8 1024.2 1024.2 0.0
17/07:00pm 8.7 4.4 -4.8 38 4.8 SSW 9 11 5 6 1023.8 1023.8 0.0
17/06:30pm 10.5 6.3 -4.3 35 5.5 SSW 9 11 5 6 1023.6 1023.6 0.0
17/06:00pm 12.4 8.1 -4.7 30 6.4 SSW 9 13 5 7 1023.2 1023.1 0.0
17/05:30pm 13.8 9.2 -4.4 28 7.0 SSW 11 15 6 8 1023.0 1022.9 0.0
17/05:00pm 15.0 10.1 -3.8 27 7.4 SW 13 19 7 10 1022.6 1022.5 0.0
17/04:30pm 15.3 9.2 -4.1 26 7.6 SW 19 28 10 15 1022.5 1022.4 0.0
17/04:00pm 15.8 9.7 -4.2 25 7.9 SW 19 28 10 15 1022.2 1022.1 0.0
17/03:30pm 15.9 10.6 -3.6 26 7.8 SW 15 30 8 16 1022.3 1022.2 0.0
17/03:00pm 16.0 10.3 -3.5 26 7.8 SW 17 30 9 16 1022.2 1022.1 0.0
17/02:30pm 15.8 10.2 -2.6 28 7.5 WSW 17 30 9 16 1022.2 1022.1 0.0
17/02:00pm 15.8 10.2 -3.1 27 7.6 WSW 17 32 9 17 1022.4 1022.3 0.0
17/01:30pm 16.0 11.3 -2.0 29 7.5 SW 13 19 7 10 1022.6 1022.5 0.0
17/01:00pm 14.9 10.2 -2.1 31 6.9 W 13 24 7 13 1023.2 1023.1 0.0
17/12:30pm 15.1 10.0 -2.3 30 7.1 WSW 15 28 8 15 1023.8 1023.8 0.0
17/12:00pm 14.4 9.0 -1.6 33 6.6 WSW 17 24 9 13 1024.5 1024.5 0.0
17/11:30am 14.2 8.8 -1.4 34 6.5 SSW 17 28 9 15 1025.2 1025.1 0.0
17/11:00am 13.7 8.8 -0.3 38 5.9 SW 15 28 8 15 1025.4 1025.3 0.0
17/10:30am 13.1 7.9 -0.2 40 5.6 SSW 17 26 9 14 1025.8 1025.7 0.0
17/10:00am 12.7 6.9 0.1 42 5.3 SSW 20 32 11 17 1025.9 1025.8 0.0
17/09:30am 12.3 7.1 0.4 44 5.0 SSW 17 26 9 14 1025.8 1025.7 0.0
17/09:00am 10.7 6.3 0.2 48 4.3 SW 13 19 7 10 1025.5 1025.4 0.0
17/08:30am 8.5 5.3 0.7 58 3.2 WSW 7 9 4 5 1025.3 1025.2 0.0
17/08:00am 5.5 3.6 0.3 69 2.0 CALM 0 0 0 0 1025.0 1024.9 0.0
17/07:30am 3.0 1.0 -0.3 79 1.2 CALM 0 0 0 0 1024.7 1024.7 0.0
17/07:00am 2.6 0.5 -0.7 79 1.2 CALM 0 0 0 0 1024.4 1024.4 0.0
17/06:30am 3.2 0.1 -0.1 79 1.3 SW 6 7 3 4 1024.1 1024.1 0.0
17/06:00am 2.9 -0.8 0.1 82 1.1 SW 9 11 5 6 1024.0 1024.0 0.0
17/05:30am 2.5 -0.7 -0.3 82 1.0 WSW 6 7 3 4 1023.9 1023.9 0.0
17/05:00am 2.6 0.2 0.0 83 1.0 WSW 2 7 1 4 1023.9 1023.9 0.0
17/04:30am 2.9 -0.3 -0.2 80 1.2 WSW 6 9 3 5 1023.7 1023.7 0.0
17/04:00am 3.2 0.4 -0.1 79 1.2 WSW 4 9 2 5 1023.6 1023.6 0.0
17/03:30am 3.5 0.7 -0.1 77 1.4 WSW 4 9 2 5 1023.6 1023.6 0.0
17/03:00am 4.0 2.0 0.2 76 1.5 CALM 0 0 0 0 1023.6 1023.6 0.0
17/02:30am 4.7 2.8 0.3 73 1.7 CALM 0 0 0 0 1023.6 1023.6 0.0
17/02:00am 5.4 2.4 0.6 71 1.9 WSW 6 7 3 4 1023.7 1023.7 0.0
17/01:30am 6.9 3.5 1.6 69 2.2 SW 9 15 5 8 1023.8 1023.8 0.0
17/01:00am 5.5 3.7 1.2 74 1.7 CALM 0 0 0 0 1023.7 1023.7 0.0
17/12:30am 5.8 2.7 1.2 72 1.9 WSW 7 9 4 5 1023.7 1023.7 0.0
17/12:00am 6.0 2.9 1.3 72 1.9 WSW 7 9 4 5 1023.7 1023.7 0.0
 
Date/Time
EST
Temp
°C
App
Temp
°C
Dew
Point
°C
Rel
Hum
%
Delta-T
°C
Wind Press
QNH
hPa
Press
MSL
hPa
Rain since
9am
mm
Dir  Spd
km/h
Gust
km/h
Spd
kts
Gust
kts
16/11:30pm 6.6 4.4 1.3 69 2.2 W 2 7 1 4 1023.6 1023.6 0.0
16/11:00pm 7.4 5.6 1.3 65 2.5 CALM 0 0 0 0 1023.6 1023.6 0.0
16/10:30pm 8.3 5.4 1.7 63 2.8 WSW 6 7 3 4 1023.5 1023.4 0.0
16/10:00pm 8.6 5.6 2.0 63 2.8 WSW 7 7 4 4 1023.4 1023.3 0.0
16/09:30pm 9.4 6.1 2.3 61 3.0 WSW 9 11 5 6 1023.2 1023.1 0.0
16/09:00pm 10.1 6.8 2.5 59 3.3 SW 9 13 5 7 1023.1 1023.0 0.0
16/08:30pm 10.3 7.5 2.2 57 3.5 WSW 6 9 3 5 1022.9 1022.8 0.0
16/08:00pm 11.3 8.3 2.3 54 3.9 W 7 9 4 5 1022.6 1022.5 0.0
16/07:30pm 12.1 9.3 2.0 50 4.4 WSW 6 7 3 4 1022.3 1022.2 0.0
16/07:00pm 13.1 10.1 1.8 46 4.9 WSW 7 9 4 5 1021.9 1021.8 0.0
16/06:30pm 15.1 12.0 1.6 40 6.0 W 7 9 4 5 1021.7 1021.6 0.0
16/06:00pm 16.6 13.1 1.5 36 6.8 WSW 9 15 5 8 1021.5 1021.4 0.0
16/05:30pm 17.5 13.9 0.6 32 7.5 WSW 9 13 5 7 1021.2 1021.2 0.0
16/05:00pm 18.7 14.0 0.8 30 8.0 WSW 15 19 8 10 1021.1 1021.1 0.0
16/04:30pm 19.3 14.6 0.8 29 8.4 WSW 15 24 8 13 1021.1 1021.1 0.0
16/04:00pm 19.9 14.8 0.9 28 8.6 W 17 28 9 15 1020.9 1020.9 0.0
16/03:30pm 19.7 14.6 0.7 28 8.6 W 17 24 9 13 1020.9 1020.9 0.0

Other Formats:

Comma delimited format used in spreadsheet applications
http://www.bom.gov.au/fwo/IDQ60801/IDQ60801.94510.axf

JavaScript Object Notation format (JSON) in row-major order
http://www.bom.gov.au/fwo/IDQ60801/IDQ60801.94510.json